createdAt,value
2022-09-10T00:01:03.816Z,19.40
2022-09-10T00:03:31.818Z,19.40
2022-09-10T00:05:59.686Z,19.40
2022-09-10T00:08:27.657Z,19.40
2022-09-10T00:10:55.511Z,19.40
2022-09-10T00:13:24.179Z,19.40
2022-09-10T00:15:54.682Z,19.40
2022-09-10T00:18:23.815Z,19.30
2022-09-10T00:20:53.602Z,19.30
2022-09-10T00:23:23.638Z,19.30
2022-09-10T00:25:53.350Z,19.30
2022-09-10T00:28:21.686Z,19.20
2022-09-10T00:30:51.732Z,19.30
2022-09-10T00:33:22.039Z,19.20
2022-09-10T00:35:50.324Z,19.20
2022-09-10T00:38:18.779Z,19.30
2022-09-10T00:40:47.135Z,19.20
2022-09-10T00:43:18.687Z,19.20
2022-09-10T00:45:48.845Z,19.20
2022-09-10T00:48:21.676Z,19.10
2022-09-10T00:50:51.762Z,19.00
2022-09-10T00:53:26.859Z,19.00
2022-09-10T00:55:58.684Z,19.00
2022-09-10T00:58:28.751Z,19.00
2022-09-10T01:01:01.024Z,19.00
2022-09-10T01:03:32.418Z,19.00
2022-09-10T01:06:00.752Z,19.00
2022-09-10T01:08:28.636Z,18.90
2022-09-10T01:11:10.040Z,19.00
2022-09-10T01:13:48.024Z,19.00
2022-09-10T01:16:24.786Z,18.90
2022-09-10T01:19:03.715Z,18.90
2022-09-10T01:21:36.348Z,19.00
2022-09-10T01:24:37.883Z,19.00
2022-09-10T01:27:31.021Z,19.00
2022-09-10T01:30:05.670Z,19.00
2022-09-10T01:32:40.974Z,18.90
2022-09-10T01:35:16.118Z,18.90
2022-09-10T01:37:48.807Z,18.90
2022-09-10T01:40:17.993Z,18.90
2022-09-10T01:42:46.497Z,18.90
2022-09-10T01:45:16.932Z,18.90
2022-09-10T01:48:00.851Z,18.80
2022-09-10T01:50:38.753Z,18.80
2022-09-10T01:53:33.297Z,18.80
2022-09-10T01:56:20.558Z,18.80
2022-09-10T01:58:49.053Z,18.80
2022-09-10T02:01:22.614Z,18.70
2022-09-10T02:03:56.857Z,18.70
2022-09-10T02:06:29.475Z,18.70
2022-09-10T02:09:00.181Z,18.60
2022-09-10T02:11:28.157Z,18.60
2022-09-10T02:13:56.200Z,18.50
2022-09-10T02:16:31.089Z,18.50
2022-09-10T02:19:00.987Z,18.60
2022-09-10T02:21:29.080Z,18.60
2022-09-10T02:24:02.067Z,18.60
2022-09-10T02:26:30.829Z,18.60
2022-09-10T02:28:58.658Z,18.60
2022-09-10T02:31:27.938Z,18.50
2022-09-10T02:33:55.813Z,18.50
2022-09-10T02:36:26.029Z,18.50
2022-09-10T02:38:56.777Z,18.40
2022-09-10T02:41:25.671Z,18.50
2022-09-10T02:43:53.524Z,18.40
2022-09-10T02:46:21.650Z,18.40
2022-09-10T02:48:50.809Z,18.40
2022-09-10T02:51:18.597Z,18.40
2022-09-10T02:53:46.488Z,18.50
2022-09-10T02:56:15.211Z,18.50
2022-09-10T02:58:43.135Z,18.40
2022-09-10T03:01:14.646Z,18.40
2022-09-10T03:03:43.450Z,18.40
2022-09-10T03:06:12.623Z,18.40
2022-09-10T03:08:40.554Z,18.40
2022-09-10T03:11:08.576Z,18.40
2022-09-10T03:13:36.628Z,18.40
2022-09-10T03:16:04.933Z,18.30
2022-09-10T03:18:32.768Z,18.30
2022-09-10T03:21:10.185Z,18.30
2022-09-10T03:23:40.397Z,18.30
2022-09-10T03:26:10.092Z,18.30
2022-09-10T03:28:38.818Z,18.20
2022-09-10T03:31:07.388Z,18.30
2022-09-10T03:33:35.654Z,18.30
2022-09-10T03:36:04.133Z,18.30
2022-09-10T03:38:32.600Z,18.20
2022-09-10T03:41:03.037Z,18.20
2022-09-10T03:43:31.548Z,18.20
2022-09-10T03:45:59.626Z,18.20
2022-09-10T03:48:27.482Z,18.20
2022-09-10T03:50:56.352Z,18.20
2022-09-10T03:53:24.686Z,18.10
2022-09-10T03:55:55.742Z,18.10
2022-09-10T03:58:24.886Z,18.20
2022-09-10T04:00:52.749Z,18.20
2022-09-10T04:03:21.078Z,18.20
2022-09-10T04:05:48.933Z,18.10
2022-09-10T04:08:17.106Z,18.10
2022-09-10T04:10:45.133Z,18.10
2022-09-10T04:13:12.980Z,18.10
2022-09-10T04:15:46.073Z,18.10
2022-09-10T04:18:13.945Z,18.20
2022-09-10T04:20:42.208Z,18.10
2022-09-10T04:23:10.029Z,18.10
2022-09-10T04:25:37.892Z,18.20
2022-09-10T04:28:05.818Z,18.20
2022-09-10T04:30:33.705Z,18.20
2022-09-10T04:33:02.883Z,18.20
2022-09-10T04:35:30.728Z,18.20
2022-09-10T04:37:58.564Z,18.20
2022-09-10T04:40:27.175Z,18.20
2022-09-10T04:42:54.985Z,18.20
2022-09-10T04:45:22.984Z,18.20
2022-09-10T04:47:53.049Z,18.20
2022-09-10T04:50:22.823Z,18.20
2022-09-10T04:52:50.757Z,18.30
2022-09-10T04:55:18.748Z,18.20
2022-09-10T04:57:46.561Z,18.20
2022-09-10T05:00:14.911Z,18.20
2022-09-10T05:02:42.870Z,18.20
2022-09-10T05:05:10.728Z,18.20
2022-09-10T05:07:39.911Z,18.20
2022-09-10T05:10:10.458Z,18.20
2022-09-10T05:12:38.430Z,18.10
2022-09-10T05:15:07.375Z,18.10
2022-09-10T05:17:35.208Z,18.10
2022-09-10T05:20:05.347Z,18.10
2022-09-10T05:22:38.418Z,18.10
2022-09-10T05:25:10.164Z,18.10
2022-09-10T05:27:38.006Z,18.10
2022-09-10T05:30:07.186Z,18.00
2022-09-10T05:32:35.025Z,18.00
2022-09-10T05:35:02.933Z,18.00
2022-09-10T05:37:31.975Z,18.00
2022-09-10T05:40:00.496Z,18.10
2022-09-10T05:42:29.716Z,18.10
2022-09-10T05:44:57.576Z,18.10
2022-09-10T05:47:25.452Z,18.10
2022-09-10T05:49:53.240Z,18.00
2022-09-10T05:52:21.067Z,18.00
2022-09-10T05:54:48.850Z,18.00
2022-09-10T05:57:16.738Z,18.10
2022-09-10T05:59:46.171Z,18.10
2022-09-10T06:02:19.550Z,18.10
2022-09-10T06:04:51.147Z,18.10
2022-09-10T06:07:19.250Z,18.10
2022-09-10T06:09:47.060Z,18.10
2022-09-10T06:12:16.123Z,18.10
2022-09-10T06:14:45.296Z,18.10
2022-09-10T06:17:13.210Z,18.10
2022-09-10T06:19:41.056Z,18.10
2022-09-10T06:22:11.056Z,18.10
2022-09-10T06:24:39.448Z,18.10
2022-09-10T06:27:07.420Z,18.10
2022-09-10T06:29:36.879Z,18.10
2022-09-10T06:32:06.633Z,18.10
2022-09-10T06:34:35.723Z,18.10
2022-09-10T06:37:05.222Z,18.10
2022-09-10T06:39:33.118Z,18.10
2022-09-10T06:42:01.107Z,18.20
2022-09-10T06:44:29.257Z,18.20
2022-09-10T06:47:45.880Z,18.20
2022-09-10T06:49:47.288Z,18.30
2022-09-10T06:52:17.925Z,18.20
2022-09-10T06:54:45.763Z,18.20
2022-09-10T06:57:13.823Z,18.20
2022-09-10T06:59:43.280Z,18.20
2022-09-10T07:02:11.517Z,18.20
2022-09-10T07:04:39.606Z,18.20
2022-09-10T07:07:09.600Z,18.20
2022-09-10T07:09:37.468Z,18.20
2022-09-10T07:12:05.821Z,18.30
2022-09-10T07:14:34.156Z,18.30
2022-09-10T07:17:02.442Z,18.30
2022-09-10T07:19:31.998Z,18.30
2022-09-10T07:21:59.967Z,18.30
2022-09-10T07:24:29.157Z,18.30
2022-09-10T07:26:57.615Z,18.30
2022-09-10T07:29:25.467Z,18.30
2022-09-10T07:31:53.516Z,18.40
2022-09-10T07:34:21.387Z,18.40
2022-09-10T07:36:49.206Z,18.40
2022-09-10T07:39:17.135Z,18.50
2022-09-10T07:41:46.558Z,18.50
2022-09-10T07:44:14.559Z,18.50
2022-09-10T07:46:42.447Z,18.50
2022-09-10T07:49:10.907Z,18.50
2022-09-10T07:51:39.339Z,18.50
2022-09-10T07:54:10.922Z,18.50
2022-09-10T07:56:38.801Z,18.50
2022-09-10T07:59:07.979Z,18.60
2022-09-10T08:01:37.762Z,18.60
2022-09-10T08:04:06.294Z,18.50
2022-09-10T08:06:34.652Z,18.50
2022-09-10T08:09:05.401Z,18.50
2022-09-10T08:11:34.620Z,18.50
2022-09-10T08:14:02.794Z,18.50
2022-09-10T08:16:33.044Z,18.50
2022-09-10T08:19:01.830Z,18.50
2022-09-10T08:21:30.169Z,18.50
2022-09-10T08:23:58.332Z,18.60
2022-09-10T08:26:29.309Z,18.60
2022-09-10T08:28:58.147Z,18.60
2022-09-10T08:31:26.972Z,18.70
2022-09-10T08:33:57.020Z,18.70
2022-09-10T08:36:26.145Z,18.60
2022-09-10T08:38:58.290Z,18.70
2022-09-10T08:41:46.867Z,18.70
2022-09-10T08:44:23.882Z,18.70
2022-09-10T08:46:56.025Z,18.80
2022-09-10T08:49:34.925Z,18.80
2022-09-10T08:52:08.133Z,18.80
2022-09-10T08:54:41.381Z,18.90
2022-09-10T08:57:22.091Z,18.90
2022-09-10T08:59:52.262Z,19.00
2022-09-10T09:02:47.060Z,19.10
2022-09-10T09:05:17.107Z,19.10
2022-09-10T09:07:46.994Z,19.10
2022-09-10T09:10:21.903Z,19.20
2022-09-10T09:13:02.791Z,19.20
2022-09-10T09:15:36.659Z,19.20
2022-09-10T09:18:18.428Z,19.10
2022-09-10T09:20:49.844Z,19.20
2022-09-10T09:23:23.051Z,19.10
2022-09-10T09:25:53.805Z,19.10
2022-09-10T09:28:32.293Z,19.10
2022-09-10T09:31:09.296Z,19.20
2022-09-10T09:33:38.639Z,19.20
2022-09-10T09:36:08.988Z,19.20
2022-09-10T09:38:40.522Z,19.20
2022-09-10T09:41:16.589Z,19.20
2022-09-10T09:43:54.170Z,19.20
2022-09-10T09:46:24.300Z,19.30
2022-09-10T09:48:56.661Z,19.30
2022-09-10T09:51:27.724Z,19.40
2022-09-10T09:54:34.590Z,19.40
2022-09-10T09:56:51.682Z,19.40
2022-09-10T09:59:30.543Z,19.40
2022-09-10T10:02:01.947Z,19.40
2022-09-10T10:04:33.802Z,19.40
2022-09-10T10:07:04.499Z,19.40
2022-09-10T10:09:34.311Z,19.50
2022-09-10T10:12:05.597Z,19.50
2022-09-10T10:14:39.253Z,19.50
2022-09-10T10:17:29.589Z,19.60
2022-09-10T10:19:59.954Z,19.70
2022-09-10T10:22:31.910Z,19.80
2022-09-10T10:25:01.564Z,19.90
2022-09-10T10:27:32.777Z,19.90
2022-09-10T10:30:06.015Z,19.90
2022-09-10T10:32:42.426Z,19.90
2022-09-10T10:35:42.121Z,20.00
2022-09-10T10:38:28.971Z,20.00
2022-09-10T10:41:21.979Z,20.10
2022-09-10T10:44:04.097Z,20.10
2022-09-10T10:46:40.907Z,20.10
2022-09-10T10:49:19.893Z,20.10
2022-09-10T10:51:58.242Z,20.00
2022-09-10T10:54:47.487Z,20.10
2022-09-10T10:57:28.629Z,20.10
2022-09-10T11:00:01.125Z,20.00
2022-09-10T11:02:41.601Z,20.00
2022-09-10T11:05:21.671Z,20.00
2022-09-10T11:07:50.012Z,20.00
2022-09-10T11:10:24.118Z,20.00
2022-09-10T11:12:57.951Z,19.90
2022-09-10T11:15:31.296Z,19.90
2022-09-10T11:18:03.973Z,19.80
2022-09-10T11:20:35.703Z,19.70
2022-09-10T11:23:14.731Z,19.70
2022-09-10T11:25:54.229Z,19.60
2022-09-10T11:28:27.186Z,19.60
2022-09-10T11:31:03.249Z,19.60
2022-09-10T11:33:39.381Z,19.60
2022-09-10T11:36:13.234Z,19.60
2022-09-10T11:38:50.060Z,19.60
2022-09-10T11:41:23.484Z,19.70
2022-09-10T11:43:58.163Z,19.70
2022-09-10T11:46:32.168Z,19.70
2022-09-10T11:49:04.001Z,19.80
2022-09-10T11:51:34.674Z,19.80
2022-09-10T11:54:04.148Z,19.80
2022-09-10T11:56:46.919Z,19.80
2022-09-10T11:59:25.535Z,19.70
2022-09-10T12:02:21.634Z,19.70
2022-09-10T12:04:57.703Z,19.70
2022-09-10T12:07:45.089Z,19.80
2022-09-10T12:10:23.865Z,19.90
2022-09-10T12:13:00.758Z,20.10
2022-09-10T12:15:33.882Z,20.20
2022-09-10T12:18:07.929Z,20.30
2022-09-10T12:20:42.199Z,20.30
2022-09-10T12:23:17.979Z,20.30
2022-09-10T12:25:46.172Z,20.20
2022-09-10T12:28:52.620Z,20.20
2022-09-10T12:31:22.872Z,20.10
2022-09-10T12:34:16.143Z,20.10
2022-09-10T12:37:21.898Z,20.10
2022-09-10T12:39:50.725Z,20.00
2022-09-10T12:42:30.054Z,19.90
2022-09-10T12:44:57.930Z,19.90
2022-09-10T12:47:50.274Z,19.80
2022-09-10T12:50:30.032Z,20.00
2022-09-10T12:53:32.039Z,20.40
2022-09-10T12:56:03.580Z,20.60
2022-09-10T12:58:56.654Z,20.70
2022-09-10T13:01:40.033Z,20.80
2022-09-10T13:04:23.807Z,20.80
2022-09-10T13:06:53.899Z,20.80
2022-09-10T13:09:26.637Z,20.70
2022-09-10T13:11:57.509Z,20.70
2022-09-10T13:14:28.725Z,20.60
2022-09-10T13:16:56.594Z,20.50
2022-09-10T13:19:53.183Z,20.50
2022-09-10T13:23:04.115Z,20.50
2022-09-10T13:25:39.712Z,20.50
2022-09-10T13:28:45.083Z,20.50
2022-09-10T13:31:19.578Z,20.40
2022-09-10T13:34:13.272Z,20.40
2022-09-10T13:36:53.456Z,20.30
2022-09-10T13:39:39.615Z,20.30
2022-09-10T13:42:35.737Z,20.20
2022-09-10T13:45:21.744Z,20.20
2022-09-10T13:47:54.930Z,20.20
2022-09-10T13:50:25.881Z,20.20
2022-09-10T13:52:58.751Z,20.20
2022-09-10T13:55:28.651Z,20.10
2022-09-10T13:57:59.773Z,20.10
2022-09-10T14:00:41.160Z,20.10
2022-09-10T14:03:17.083Z,20.10
2022-09-10T14:05:48.982Z,20.20
2022-09-10T14:08:22.916Z,20.20
2022-09-10T14:10:58.008Z,20.20
2022-09-10T14:13:31.518Z,20.20
2022-09-10T14:16:02.196Z,20.20
2022-09-10T14:18:38.102Z,20.30
2022-09-10T14:21:06.806Z,20.40
2022-09-10T14:23:40.168Z,20.40
2022-09-10T14:26:13.341Z,20.40
2022-09-10T14:28:55.540Z,20.50
2022-09-10T14:31:30.933Z,20.50
2022-09-10T14:34:00.148Z,20.50
2022-09-10T14:36:35.586Z,20.50
2022-09-10T14:39:07.305Z,20.40
2022-09-10T14:41:36.856Z,20.40
2022-09-10T14:44:29.675Z,20.40
2022-09-10T14:46:59.343Z,20.40
2022-09-10T14:49:29.774Z,20.30
2022-09-10T14:51:59.128Z,20.30
2022-09-10T14:54:28.604Z,20.20
2022-09-10T14:56:58.440Z,20.20
2022-09-10T14:59:31.133Z,20.10
2022-09-10T15:02:00.680Z,20.00
2022-09-10T15:04:30.294Z,19.90
2022-09-10T15:06:59.670Z,19.90
2022-09-10T15:09:31.233Z,19.80
2022-09-10T15:12:04.588Z,19.80
2022-09-10T15:14:33.422Z,19.70
2022-09-10T15:17:01.599Z,19.70
2022-09-10T15:19:29.890Z,19.70
2022-09-10T15:21:58.657Z,19.70
2022-09-10T15:24:28.319Z,19.70
2022-09-10T15:26:57.361Z,19.70
2022-09-10T15:29:26.137Z,19.70
2022-09-10T15:31:59.317Z,19.60
2022-09-10T15:34:27.199Z,19.60
2022-09-10T15:36:55.022Z,19.60
2022-09-10T15:39:22.837Z,19.60
2022-09-10T15:41:52.021Z,19.60
2022-09-10T15:44:19.846Z,19.50
2022-09-10T15:46:47.729Z,19.50
2022-09-10T15:49:15.581Z,19.60
2022-09-10T15:51:43.698Z,19.50
2022-09-10T15:54:12.120Z,19.50
2022-09-10T15:56:40.671Z,19.50
2022-09-10T15:59:10.219Z,19.50
2022-09-10T16:01:39.252Z,19.50
2022-09-10T16:04:07.322Z,19.50
2022-09-10T16:06:37.636Z,19.50
2022-09-10T16:09:09.037Z,19.40
2022-09-10T16:11:39.190Z,19.40
2022-09-10T16:14:11.695Z,19.50
2022-09-10T16:16:40.877Z,19.50
2022-09-10T16:19:09.781Z,19.40
2022-09-10T16:21:39.182Z,19.40
2022-09-10T16:24:07.932Z,19.40
2022-09-10T16:26:38.124Z,19.40
2022-09-10T16:29:13.813Z,19.40
2022-09-10T16:31:41.999Z,19.40
2022-09-10T16:34:13.399Z,19.40
2022-09-10T16:36:41.488Z,19.30
2022-09-10T16:39:12.716Z,19.30
2022-09-10T16:41:41.144Z,19.30
2022-09-10T16:44:11.154Z,19.30
2022-09-10T16:46:39.716Z,19.20
2022-09-10T16:49:08.915Z,19.20
2022-09-10T16:51:37.053Z,19.20
2022-09-10T16:54:06.914Z,19.20
2022-09-10T16:56:37.133Z,19.10
2022-09-10T16:59:07.399Z,19.10
2022-09-10T17:01:37.077Z,19.10
2022-09-10T17:04:07.434Z,19.10
2022-09-10T17:06:36.790Z,19.10
2022-09-10T17:09:05.453Z,19.10
2022-09-10T17:11:34.241Z,19.10
2022-09-10T17:14:02.517Z,19.10
2022-09-10T17:16:32.595Z,19.10
2022-09-10T17:19:03.774Z,19.10
2022-09-10T17:21:34.518Z,19.10
2022-09-10T17:24:03.713Z,19.10
2022-09-10T17:26:32.791Z,19.00
2022-09-10T17:29:02.106Z,19.00
2022-09-10T17:31:31.467Z,19.00
2022-09-10T17:34:01.350Z,18.90
2022-09-10T17:36:30.519Z,19.00
2022-09-10T17:38:59.129Z,18.90
2022-09-10T17:41:28.277Z,18.90
2022-09-10T17:43:56.808Z,18.90
2022-09-10T17:46:26.509Z,18.90
2022-09-10T17:48:55.419Z,18.90
2022-09-10T17:51:26.959Z,19.00
2022-09-10T17:53:56.167Z,18.90
2022-09-10T17:56:26.543Z,18.90
2022-09-10T17:58:58.434Z,18.90
2022-09-10T18:01:27.871Z,18.90
2022-09-10T18:03:56.225Z,19.00
2022-09-10T18:06:28.810Z,18.90
2022-09-10T18:08:58.986Z,18.90
2022-09-10T18:11:29.804Z,18.90
2022-09-10T18:13:59.432Z,18.90
2022-09-10T18:16:29.045Z,18.80
2022-09-10T18:18:59.284Z,18.80
2022-09-10T18:21:31.263Z,18.80
2022-09-10T18:24:01.207Z,18.70
2022-09-10T18:26:31.719Z,18.70
2022-09-10T18:29:01.975Z,18.70
2022-09-10T18:31:31.646Z,18.70
2022-09-10T18:34:00.395Z,18.70
2022-09-10T18:36:30.350Z,18.70
2022-09-10T18:38:59.138Z,18.70
2022-09-10T18:41:28.766Z,18.70
2022-09-10T18:43:58.674Z,18.70
2022-09-10T18:46:29.008Z,18.70
2022-09-10T18:48:57.686Z,18.70
2022-09-10T18:51:28.411Z,18.70
2022-09-10T18:53:59.867Z,18.70
2022-09-10T18:56:30.639Z,18.70
2022-09-10T18:59:01.560Z,18.70
2022-09-10T19:01:31.056Z,18.70
2022-09-10T19:03:59.201Z,18.70
2022-09-10T19:06:28.802Z,18.70
2022-09-10T19:08:59.535Z,18.70
2022-09-10T19:11:32.881Z,18.60
2022-09-10T19:14:02.194Z,18.60
2022-09-10T19:16:31.559Z,18.60
2022-09-10T19:19:00.777Z,18.60
2022-09-10T19:21:30.943Z,18.60
2022-09-10T19:24:01.620Z,18.50
2022-09-10T19:26:32.153Z,18.60
2022-09-10T19:29:01.643Z,18.60
2022-09-10T19:31:31.952Z,18.60
2022-09-10T19:34:01.650Z,18.50
2022-09-10T19:36:31.606Z,18.50
2022-09-10T19:39:01.810Z,18.50
2022-09-10T19:41:29.865Z,18.50
2022-09-10T19:43:57.967Z,18.50
2022-09-10T19:46:28.300Z,18.50
2022-09-10T19:48:59.255Z,18.60
2022-09-10T19:51:28.554Z,18.60
2022-09-10T19:53:57.054Z,18.60
2022-09-10T19:56:28.737Z,18.50
2022-09-10T19:58:57.772Z,18.50
2022-09-10T20:01:27.610Z,18.40
2022-09-10T20:03:56.051Z,18.40
2022-09-10T20:06:25.465Z,18.40
2022-09-10T20:08:53.899Z,18.40
2022-09-10T20:11:23.458Z,18.40
2022-09-10T20:13:56.565Z,18.40
2022-09-10T20:16:26.075Z,18.40
2022-09-10T20:18:54.450Z,18.40
2022-09-10T20:21:24.419Z,18.40
2022-09-10T20:23:55.534Z,18.40
2022-09-10T20:26:25.399Z,18.40
2022-09-10T20:28:56.492Z,18.40
2022-09-10T20:31:27.062Z,18.40
2022-09-10T20:33:57.188Z,18.40
2022-09-10T20:36:26.434Z,18.40
2022-09-10T20:38:55.560Z,18.40
2022-09-10T20:41:24.081Z,18.40
2022-09-10T20:43:54.118Z,18.40
2022-09-10T20:46:23.263Z,18.40
2022-09-10T20:48:52.693Z,18.40
2022-09-10T20:51:21.459Z,18.30
2022-09-10T20:53:49.679Z,18.30
2022-09-10T20:56:19.157Z,18.30
2022-09-10T20:58:48.277Z,18.30
2022-09-10T21:01:19.764Z,18.30
2022-09-10T21:03:48.684Z,18.30
2022-09-10T21:06:19.577Z,18.30
2022-09-10T21:08:48.648Z,18.30
2022-09-10T21:11:18.056Z,18.30
2022-09-10T21:13:49.206Z,18.30
2022-09-10T21:16:20.405Z,18.30
2022-09-10T21:18:53.743Z,18.30
2022-09-10T21:21:25.256Z,18.30
2022-09-10T21:23:54.431Z,18.30
2022-09-10T21:26:25.233Z,18.30
2022-09-10T21:28:55.901Z,18.30
2022-09-10T21:31:25.700Z,18.30
2022-09-10T21:33:56.717Z,18.30
2022-09-10T21:36:27.809Z,18.30
2022-09-10T21:38:57.391Z,18.30
2022-09-10T21:41:28.039Z,18.30
2022-09-10T21:43:55.857Z,18.30
2022-09-10T21:46:25.341Z,18.30
2022-09-10T21:48:53.335Z,18.30
2022-09-10T21:51:22.284Z,18.30
2022-09-10T21:53:54.835Z,18.30
2022-09-10T21:56:23.510Z,18.30
2022-09-10T21:58:51.861Z,18.30
2022-09-10T22:01:21.135Z,18.30
2022-09-10T22:03:52.615Z,18.30
2022-09-10T22:06:23.039Z,18.30
2022-09-10T22:08:53.705Z,18.20
2022-09-10T22:11:24.340Z,18.30
2022-09-10T22:13:54.091Z,18.20
2022-09-10T22:16:22.676Z,18.20
2022-09-10T22:18:52.497Z,18.20
2022-09-10T22:21:20.339Z,18.20
2022-09-10T22:23:51.393Z,18.20
2022-09-10T22:26:20.823Z,18.20
2022-09-10T22:28:52.563Z,18.20
2022-09-10T22:31:23.496Z,18.20
2022-09-10T22:33:57.269Z,18.10
2022-09-10T22:36:28.759Z,18.10
2022-09-10T22:38:59.208Z,18.20
2022-09-10T22:41:27.543Z,18.20
2022-09-10T22:43:55.768Z,18.10
2022-09-10T22:46:24.040Z,18.10
2022-09-10T22:48:51.919Z,18.10
2022-09-10T22:51:23.557Z,18.10
2022-09-10T22:53:52.827Z,18.10
2022-09-10T22:56:22.731Z,18.00
2022-09-10T22:58:51.682Z,18.00
2022-09-10T23:01:21.852Z,18.00
2022-09-10T23:03:50.214Z,18.00
2022-09-10T23:06:19.973Z,18.00
2022-09-10T23:08:51.228Z,18.00
2022-09-10T23:11:21.826Z,18.00
2022-09-10T23:13:52.406Z,18.00
2022-09-10T23:16:21.829Z,18.10
2022-09-10T23:18:51.437Z,18.00
2022-09-10T23:21:20.165Z,18.00
2022-09-10T23:23:50.809Z,18.00
2022-09-10T23:26:19.166Z,18.00
2022-09-10T23:28:47.586Z,17.90
2022-09-10T23:31:17.283Z,17.90
2022-09-10T23:33:48.500Z,17.90
2022-09-10T23:36:16.354Z,17.80
2022-09-10T23:38:44.825Z,17.80
2022-09-10T23:41:15.907Z,17.80
2022-09-10T23:43:44.690Z,17.80
2022-09-10T23:46:13.254Z,17.80
2022-09-10T23:48:42.554Z,17.80
2022-09-10T23:51:13.598Z,17.80
2022-09-10T23:53:42.619Z,17.80
2022-09-10T23:56:10.600Z,17.90
2022-09-10T23:58:40.322Z,17.80
